Time;durP1;ratioP1;P1;durP2;ratioP2;P2;SDS_P1;SDS_P2;PMS_P1;PMS_P2;Temp;Humidity;BMP_temperature;BMP_pressure;BME280_temperature;BME280_humidity;BME280_pressure;Samples;Min_cycle;Max_cycle;Signal;HPM_P1;HPM_P2
2021/10/03 00:02:12;;;;;;;32.03;18.52;;;;;;;6.18;62.92;101016.97;5032183;28;20414;-73
2021/10/03 00:04:42;;;;;;;33.75;19.20;;;;;;;6.18;62.83;101010.69;5031789;28;20051;-75
2021/10/03 00:07:09;;;;;;;29.90;18.67;;;;;;;6.17;62.95;101009.03;5049088;28;20112;-74
2021/10/03 00:09:35;;;;;;;32.97;19.20;;;;;;;6.23;62.48;101017.16;5032278;28;20053;-74
2021/10/03 00:12:02;;;;;;;42.60;19.67;;;;;;;6.22;62.63;101010.03;5045117;28;20080;-73
2021/10/03 00:14:28;;;;;;;42.77;19.50;;;;;;;6.24;62.51;101017.97;5036015;28;20057;-75
2021/10/03 00:16:54;;;;;;;34.40;18.08;;;;;;;6.29;62.18;101012.75;5049922;28;20405;-74
2021/10/03 00:19:22;;;;;;;38.15;19.30;;;;;;;6.21;62.42;101002.09;5033850;28;20104;-75
2021/10/03 00:21:49;;;;;;;39.88;19.25;;;;;;;6.32;62.13;101011.44;5033876;28;20049;-75
2021/10/03 00:24:15;;;;;;;;;;;;;;;6.35;62.08;101011.84;5048246;28;20061;-74
2021/10/03 00:26:42;;;;;;;40.15;17.73;;;;;;;6.39;61.73;101017.69;5031370;28;19931;-74
2021/10/03 00:29:09;;;;;;;36.88;18.60;;;;;;;6.39;61.72;101013.09;5046617;28;20049;-75
2021/10/03 00:31:35;;;;;;;40.42;19.60;;;;;;;6.27;61.87;101008.56;5033887;28;20152;-75
2021/10/03 00:34:01;;;;;;;36.22;19.35;;;;;;;6.22;62.13;101003.78;5032025;28;20080;-74
2021/10/03 00:36:27;;;;;;;37.45;18.00;;;;;;;6.19;62.34;101009.63;5014927;28;20087;-73
2021/10/03 00:38:55;;;;;;;33.42;18.77;;;;;;;6.19;62.00;100996.06;5015353;28;20072;-74
2021/10/03 00:41:21;;;;;;;37.00;18.65;;;;;;;6.36;61.61;101010.81;5018046;28;20107;-75
2021/10/03 00:43:47;;;;;;;36.00;18.63;;;;;;;6.29;61.47;100996.44;5030677;28;20065;-74
2021/10/03 00:46:14;;;;;;;33.17;19.20;;;;;;;6.39;61.37;101010.38;5048306;28;20144;-74
2021/10/03 00:48:40;;;;;;;34.13;17.67;;;;;;;6.32;61.48;101004.16;5049503;28;20053;-74
2021/10/03 00:51:06;;;;;;;47.20;18.70;;;;;;;6.38;61.25;101008.69;5050234;28;20492;-74
2021/10/03 00:53:32;;;;;;;36.15;18.15;;;;;;;6.29;61.38;100988.28;5034826;28;20055;-73
2021/10/03 00:55:59;;;;;;;29.27;17.42;;;;;;;6.38;61.28;101014.13;5052592;28;20052;-75
2021/10/03 00:58:25;;;;;;;35.47;18.92;;;;;;;6.29;61.62;101001.03;5034842;28;20080;-75
2021/10/03 01:00:51;;;;;;;37.55;18.60;;;;;;;6.32;61.55;101006.00;5053977;28;20049;-74
2021/10/03 01:03:18;;;;;;;32.50;18.50;;;;;;;6.32;61.30;101001.44;5052949;28;20096;-74
2021/10/03 01:05:44;;;;;;;34.08;18.67;;;;;;;6.36;61.23;101004.56;5033120;28;20072;-74
2021/10/03 01:08:10;;;;;;;35.50;18.38;;;;;;;6.30;61.44;100995.38;5034631;28;20049;-74
2021/10/03 01:10:36;;;;;;;35.70;18.17;;;;;;;6.21;61.83;100997.53;5054390;28;20104;-74
2021/10/03 01:13:09;;;;;;;37.95;18.65;;;;;;;6.14;62.09;100995.88;5038641;28;20053;-73
2021/10/03 01:15:37;;;;;;;34.78;19.08;;;;;;;6.13;61.99;100995.03;5036067;28;20052;-74
2021/10/03 01:18:04;;;;;;;32.38;18.33;;;;;;;6.18;61.78;100992.53;5051376;28;20095;-73
2021/10/03 01:20:30;;;;;;;36.05;19.15;;;;;;;6.15;61.87;101000.25;5053031;28;20076;-74
2021/10/03 01:23:03;;;;;;;33.83;18.85;;;;;;;6.08;62.15;100998.41;5052606;28;20049;-73
2021/10/03 01:25:29;;;;;;;38.05;20.17;;;;;;;6.03;62.21;100998.22;5035587;28;20446;-74
2021/10/03 01:27:56;;;;;;;33.55;19.52;;;;;;;6.08;62.19;100992.97;5034280;28;20135;-73
2021/10/03 01:30:24;;;;;;;35.08;19.77;;;;;;;6.02;62.20;100993.84;5059117;28;20120;-73
2021/10/03 01:32:50;;;;;;;39.25;18.70;;;;;;;5.94;62.57;100985.91;5016245;28;20052;-74
2021/10/03 01:35:16;;;;;;;40.28;20.02;;;;;;;6.00;62.43;100992.34;5032596;28;20061;-71
2021/10/03 01:37:42;;;;;;;33.28;19.13;;;;;;;6.06;62.35;100988.81;5029845;28;20048;-73
2021/10/03 01:40:11;;;;;;;35.47;20.00;;;;;;;6.04;62.34;100990.91;5019640;28;20088;-73
2021/10/03 01:42:37;;;;;;;38.42;19.95;;;;;;;6.05;62.40;100990.69;5030260;28;20152;-73
2021/10/03 01:45:05;;;;;;;34.00;18.50;;;;;;;6.01;62.31;100989.47;5035554;28;20147;-73
2021/10/03 01:47:32;;;;;;;32.55;18.52;;;;;;;6.04;62.30;100988.19;5047092;28;20145;-74
2021/10/03 01:49:58;;;;;;;37.47;19.10;;;;;;;6.06;62.34;100983.38;5042575;28;20115;-74
2021/10/03 01:52:24;;;;;;;39.28;18.13;;;;;;;6.11;62.25;100994.41;5051682;28;20052;-72
2021/10/03 01:54:50;;;;;;;33.38;19.00;;;;;;;6.12;62.15;100987.13;5031846;28;20053;-73
2021/10/03 01:57:17;;;;;;;31.40;18.17;;;;;;;6.16;62.08;100999.22;5035667;28;20119;-74
2021/10/03 01:59:43;;;;;;;30.45;17.60;;;;;;;6.14;62.11;101004.03;5053601;28;20064;-73
2021/10/03 02:02:09;;;;;;;38.50;19.02;;;;;;;6.10;62.33;100998.19;5040012;28;20060;-73
2021/10/03 02:04:35;;;;;;;33.40;19.13;;;;;;;6.10;62.24;100999.03;5052237;28;20433;-73
2021/10/03 02:07:00;;;;;;;37.05;18.13;;;;;;;6.14;62.14;100999.41;5051033;28;20056;-73
2021/10/03 02:09:28;;;;;;;35.15;19.60;;;;;;;6.22;61.81;101003.78;5053317;28;20077;-74
2021/10/03 02:11:56;;;;;;;38.20;18.45;;;;;;;6.24;61.26;101002.50;5040452;28;20071;-73
2021/10/03 02:14:27;;;;;;;33.08;18.67;;;;;;;6.22;61.69;100998.34;5052159;28;20107;-75
2021/10/03 02:16:54;;;;;;;33.63;19.55;;;;;;;6.16;61.85;101005.47;5049207;28;20405;-74
2021/10/03 02:19:19;;;;;;;33.10;18.88;;;;;;;6.07;62.21;100996.72;5051904;28;20045;-74
2021/10/03 02:21:47;;;;;;;32.85;17.77;;;;;;;6.01;62.54;101003.03;5033826;28;20697;-74
2021/10/03 02:24:15;;;;;;;36.45;19.00;;;;;;;5.96;62.62;101000.94;5034333;28;20504;-73
2021/10/03 02:26:41;;;;;;;36.20;18.90;;;;;;;6.00;62.48;100998.63;5033725;28;20064;-73
2021/10/03 02:29:07;;;;;;;36.33;18.90;;;;;;;6.03;62.29;101013.69;5052502;28;20472;-73
2021/10/03 02:31:35;;;;;;;34.72;18.95;;;;;;;6.06;62.44;101007.81;5034446;28;20521;-74
2021/10/03 02:34:01;;;;;;;34.20;18.48;;;;;;;6.03;62.43;101008.25;5034419;28;20049;-73
2021/10/03 02:36:27;;;;;;;33.58;18.73;;;;;;;6.15;62.08;101008.41;5052548;28;20049;-73
2021/10/03 02:38:54;;;;;;;35.60;19.25;;;;;;;6.20;61.61;101008.59;5051373;28;20057;-73
2021/10/03 02:41:21;;;;;;;35.92;18.52;;;;;;;6.21;61.56;101010.25;5033036;28;20481;-73
2021/10/03 02:43:50;;;;;;;36.13;18.70;;;;;;;6.23;61.35;101011.72;5052750;28;20056;-73
2021/10/03 02:46:18;;;;;;;31.85;17.65;;;;;;;6.18;61.19;101007.97;5034281;28;20059;-73
2021/10/03 02:48:50;;;;;;;35.13;18.80;;;;;;;6.21;61.26;101013.81;5036806;28;20052;-74
2021/10/03 02:51:17;;;;;;;39.58;19.35;;;;;;;6.20;61.22;101003.16;5034770;28;20060;-73
2021/10/03 02:53:44;;;;;;;43.05;19.75;;;;;;;6.23;61.20;101003.56;5033047;28;20049;-73
2021/10/03 02:56:10;;;;;;;47.38;22.40;;;;;;;6.21;60.94;101000.22;5051834;28;20056;-73
2021/10/03 02:58:36;;;;;;;38.50;19.95;;;;;;;6.12;61.31;101000.69;5049181;28;20057;-73
2021/10/03 03:01:02;;;;;;;43.05;18.83;;;;;;;6.08;61.08;101003.00;5050662;28;20084;-73
2021/10/03 03:03:30;;;;;;;39.97;21.05;;;;;;;6.03;61.43;101000.13;5050473;28;20060;-73
2021/10/03 03:05:57;;;;;;;37.42;19.15;;;;;;;6.06;61.61;101000.50;5052279;28;20045;-74
2021/10/03 03:08:23;;;;;;;39.88;19.50;;;;;;;6.06;61.38;101002.41;5030716;28;20478;-73
2021/10/03 03:10:49;;;;;;;33.88;19.40;;;;;;;5.99;61.67;101001.53;5051151;28;20056;-73
2021/10/03 03:13:15;;;;;;;36.30;20.40;;;;;;;5.95;61.81;100998.44;5037497;28;20148;-74
2021/10/03 03:15:41;;;;;;;39.20;20.45;;;;;;;5.93;62.26;101005.94;5033461;28;20049;-73
2021/10/03 03:18:07;;;;;;;37.25;20.70;;;;;;;5.97;62.05;101004.47;5030898;28;20057;-73
2021/10/03 03:20:33;;;;;;;45.55;23.35;;;;;;;5.94;62.27;101002.22;5051130;28;20076;-73
2021/10/03 03:23:00;;;;;;;38.75;21.48;;;;;;;5.93;62.39;101014.09;5048687;28;20059;-75
2021/10/03 03:25:26;;;;;;;36.15;20.67;;;;;;;5.95;62.35;100998.44;5031447;28;20148;-73
2021/10/03 03:27:52;;;;;;;38.05;20.35;;;;;;;5.95;62.40;101003.88;5050253;28;20076;-72
2021/10/03 03:30:18;;;;;;;38.40;20.23;;;;;;;5.88;62.56;101009.31;5050160;28;20076;-73
2021/10/03 03:32:44;;;;;;;37.75;20.92;;;;;;;5.81;62.88;101011.22;5050440;28;20103;-73
2021/10/03 03:35:11;;;;;;;38.45;20.33;;;;;;;5.77;63.11;101009.97;5033903;28;20493;-73
2021/10/03 03:37:38;;;;;;;39.20;20.67;;;;;;;5.75;62.81;101018.31;5048802;28;20069;-74
2021/10/03 03:40:08;;;;;;;42.03;21.40;;;;;;;5.73;62.74;101011.47;5047033;28;20123;-74
2021/10/03 03:42:34;;;;;;;39.67;21.63;;;;;;;5.74;62.97;101013.13;5045757;28;20379;-73
2021/10/03 03:45:00;;;;;;;38.70;20.42;;;;;;;5.67;63.35;101015.84;5047012;28;20045;-74
2021/10/03 03:47:26;;;;;;;39.42;21.30;;;;;;;5.66;63.20;101009.56;5044052;28;20064;-74
2021/10/03 03:49:52;;;;;;;41.60;21.75;;;;;;;5.64;63.36;101013.56;5028944;28;20545;-74
2021/10/03 03:52:18;;;;;;;36.28;21.17;;;;;;;5.64;63.52;101008.97;5032649;28;20517;-74
2021/10/03 03:54:44;;;;;;;39.70;21.58;;;;;;;5.60;63.52;101002.28;5017779;28;20079;-74
2021/10/03 03:57:11;;;;;;;42.03;21.52;;;;;;;5.68;63.64;101007.47;5050798;28;20077;-73
2021/10/03 03:59:37;;;;;;;42.80;22.50;;;;;;;5.70;63.57;101014.56;5028870;28;20144;-73
2021/10/03 04:02:03;;;;;;;44.53;21.70;;;;;;;5.71;63.51;101006.22;5032675;28;20161;-74
2021/10/03 04:04:29;;;;;;;40.78;21.48;;;;;;;5.70;63.32;101001.00;5050511;28;20053;-74
2021/10/03 04:06:55;;;;;;;40.15;22.00;;;;;;;5.71;63.41;101013.56;5048141;28;20055;-74
2021/10/03 04:09:21;;;;;;;41.38;22.10;;;;;;;5.70;63.44;101015.41;5031249;28;20053;-74
2021/10/03 04:11:47;;;;;;;41.20;21.55;;;;;;;5.70;63.56;101015.41;5050922;28;20076;-74
2021/10/03 04:14:14;;;;;;;41.63;21.48;;;;;;;5.70;63.62;101015.41;5032052;28;20083;-74
2021/10/03 04:16:41;;;;;;;40.35;21.65;;;;;;;5.70;63.64;101010.00;5049787;28;20056;-72
2021/10/03 04:19:07;;;;;;;41.88;22.00;;;;;;;5.71;63.65;101011.66;5031808;28;20092;-73
2021/10/03 04:21:33;;;;;;;38.63;21.27;;;;;;;5.72;63.36;101001.66;5051054;28;20049;-74
2021/10/03 04:23:59;;;;;;;41.60;20.90;;;;;;;5.76;63.53;101011.03;5050835;28;20044;-73
2021/10/03 04:26:25;;;;;;;38.20;20.77;;;;;;;5.79;63.40;101016.03;5043609;28;20079;-74
2021/10/03 04:28:51;;;;;;;37.55;22.65;;;;;;;5.84;63.17;101016.19;5032042;28;20071;-74
2021/10/03 04:31:18;;;;;;;44.67;22.48;;;;;;;5.84;63.30;101013.50;5054398;28;20059;-74
2021/10/03 04:33:44;;;;;;;38.97;20.13;;;;;;;5.87;62.96;101018.50;5059157;28;20080;-73
2021/10/03 04:36:11;;;;;;;35.95;21.58;;;;;;;5.91;62.76;101021.63;5054840;28;20056;-73
2021/10/03 04:38:37;;;;;;;39.70;21.33;;;;;;;5.93;62.68;101017.66;5052989;28;20080;-73
2021/10/03 04:41:03;;;;;;;38.33;20.98;;;;;;;5.97;62.36;101015.34;5053253;28;20057;-73
2021/10/03 04:43:30;;;;;;;35.75;20.38;;;;;;;5.96;62.09;101008.25;5036071;28;20052;-75
2021/10/03 04:45:56;;;;;;;40.05;18.90;;;;;;;6.02;61.89;101012.03;5052728;28;20057;-75
2021/10/03 04:48:23;;;;;;;36.72;19.42;;;;;;;6.09;61.89;101021.81;5037742;28;20045;-75
2021/10/03 04:50:49;;;;;;;39.35;20.60;;;;;;;6.19;61.50;101024.06;5051850;28;20079;-75
2021/10/03 04:53:15;;;;;;;41.42;20.92;;;;;;;6.28;61.03;101021.94;5059921;28;20545;-73
2021/10/03 04:55:41;;;;;;;41.08;21.05;;;;;;;6.41;60.61;101022.94;5053556;28;20060;-73
2021/10/03 04:58:07;;;;;;;38.53;20.90;;;;;;;6.41;60.54;101018.31;5034279;28;20053;-72
2021/10/03 05:00:33;;;;;;;36.53;20.58;;;;;;;6.35;60.68;101013.75;5053381;28;20052;-73
2021/10/03 05:02:59;;;;;;;32.45;19.08;;;;;;;6.30;60.64;101019.00;5052858;28;20609;-76
2021/10/03 05:05:27;;;;;;;34.72;20.20;;;;;;;6.25;60.71;101022.38;5053038;28;20144;-74
2021/10/03 05:07:52;;;;;;;34.80;20.15;;;;;;;6.18;60.90;101014.25;5035208;28;20139;-74
2021/10/03 05:10:18;;;;;;;34.53;20.08;;;;;;;6.17;61.18;101020.72;5039832;28;20531;-74
2021/10/03 05:12:44;;;;;;;38.72;20.38;;;;;;;6.15;61.41;101027.44;5059303;28;20053;-73
2021/10/03 05:15:10;;;;;;;35.03;19.85;;;;;;;6.16;61.45;101026.38;5054143;28;20053;-73
2021/10/03 05:17:36;;;;;;;32.40;19.20;;;;;;;6.17;61.40;101033.47;5051343;28;20052;-73
2021/10/03 05:20:03;;;;;;;35.10;19.88;;;;;;;6.15;61.68;101030.97;5061649;28;20099;-74
2021/10/03 05:22:30;;;;;;;36.63;20.23;;;;;;;6.17;61.65;101030.75;5053515;28;20452;-75
2021/10/03 05:24:56;;;;;;;34.65;19.25;;;;;;;6.12;61.86;101025.97;5053058;28;20068;-74
2021/10/03 05:27:22;;;;;;;31.63;18.40;;;;;;;6.09;62.04;101027.25;5051472;28;20045;-74
2021/10/03 05:29:48;;;;;;;35.38;18.98;;;;;;;6.13;62.07;101037.66;5035117;28;20041;-74
2021/10/03 05:32:14;;;;;;;33.40;19.40;;;;;;;6.16;62.11;101035.34;5052063;28;20480;-73
2021/10/03 05:34:40;;;;;;;39.97;20.13;;;;;;;6.20;62.17;101039.31;5035754;28;20055;-74
2021/10/03 05:37:06;;;;;;;37.33;19.35;;;;;;;6.22;62.26;101036.38;5053045;28;20112;-73
2021/10/03 05:39:33;;;;;;;48.25;22.63;;;;;;;6.25;62.45;101033.25;5053664;28;20041;-74
2021/10/03 05:41:59;;;;;;;52.33;23.75;;;;;;;6.25;62.64;101030.53;5053464;28;20080;-74
2021/10/03 05:44:25;;;;;;;52.67;25.52;;;;;;;6.38;62.48;101040.47;5034508;28;20138;-74
2021/10/03 05:46:51;;;;;;;63.97;25.75;;;;;;;6.44;62.68;101041.50;5043872;28;20092;-74
2021/10/03 05:49:17;;;;;;;51.28;24.90;;;;;;;6.41;62.65;101039.22;5051588;28;20057;-74
2021/10/03 05:51:43;;;;;;;56.83;24.55;;;;;;;6.46;62.40;101034.78;5053634;28;20433;-74
2021/10/03 05:54:09;;;;;;;54.67;24.15;;;;;;;6.50;62.28;101035.19;5050785;28;20063;-73
2021/10/03 05:56:37;;;;;;;64.22;24.20;;;;;;;6.53;62.34;101034.75;5036305;28;20053;-74
2021/10/03 05:59:03;;;;;;;46.40;25.45;;;;;;;6.55;62.24;101038.06;5025850;28;20049;-74
2021/10/03 06:01:30;;;;;;;54.42;26.67;;;;;;;6.59;62.28;101039.34;5035100;28;20144;-73
2021/10/03 06:03:56;;;;;;;50.28;24.33;;;;;;;6.51;62.60;101026.84;5051929;28;20423;-75
2021/10/03 06:06:22;;;;;;;49.50;26.88;;;;;;;6.50;62.24;101044.19;5052156;28;20049;-73
2021/10/03 06:08:49;;;;;;;54.53;25.95;;;;;;;6.58;62.13;101050.41;5063414;28;20059;-73
2021/10/03 06:11:15;;;;;;;41.58;24.88;;;;;;;6.62;61.88;101038.03;5053476;28;20504;-73
2021/10/03 06:13:43;;;;;;;44.72;24.65;;;;;;;6.64;61.77;101031.34;5034181;28;20053;-73
2021/10/03 06:16:09;;;;;;;46.60;25.52;;;;;;;6.73;61.52;101037.34;5053218;28;20048;-73
2021/10/03 06:18:35;;;;;;;41.53;23.67;;;;;;;6.66;62.09;101040.13;5035977;28;20464;-74
2021/10/03 06:21:01;;;;;;;58.05;25.60;;;;;;;6.77;61.80;101035.84;5055151;28;20567;-73
2021/10/03 06:23:27;;;;;;;50.83;26.08;;;;;;;6.77;61.80;101035.84;5035301;28;20095;-74
2021/10/03 06:25:53;;;;;;;43.42;23.92;;;;;;;6.83;61.54;101036.88;5017015;28;20053;-73
2021/10/03 06:28:19;;;;;;;52.42;25.00;;;;;;;6.87;61.70;101045.44;5050141;28;20056;-74
2021/10/03 06:30:46;;;;;;;50.35;25.73;;;;;;;6.94;61.72;101036.16;5051849;28;20135;-73
2021/10/03 06:33:12;;;;;;;45.13;25.27;;;;;;;6.95;61.54;101035.13;5031609;28;20107;-74
2021/10/03 06:35:38;;;;;;;49.67;26.55;;;;;;;6.97;61.39;101028.63;5051956;28;20049;-73
2021/10/03 06:38:04;;;;;;;51.28;26.45;;;;;;;7.00;61.29;101039.91;5032489;28;20052;-73
2021/10/03 06:40:30;;;;;;;52.53;24.52;;;;;;;6.99;60.92;101023.78;5051415;28;20139;-73
2021/10/03 06:42:57;;;;;;;53.50;26.50;;;;;;;7.05;61.00;101026.47;5032554;28;20068;-74
2021/10/03 06:45:23;;;;;;;51.57;26.57;;;;;;;7.05;60.83;101033.81;5050588;28;20048;-73
2021/10/03 06:47:50;;;;;;;57.13;26.33;;;;;;;7.11;60.80;101027.47;5015410;28;20055;-73
2021/10/03 06:50:17;;;;;;;52.50;28.30;;;;;;;7.08;60.93;101025.19;5050086;28;20116;-73
2021/10/03 06:52:43;;;;;;;51.75;26.17;;;;;;;7.18;60.97;101043.75;5032086;28;20111;-73
2021/10/03 06:55:15;;;;;;;52.85;25.05;;;;;;;7.17;60.85;101032.00;5029288;28;20066;-74
2021/10/03 06:57:41;;;;;;;52.05;26.42;;;;;;;7.20;60.79;101037.03;5048698;28;20522;-71
2021/10/03 07:00:08;;;;;;;49.47;26.48;;;;;;;7.28;60.60;101045.97;5052459;28;20108;-73
2021/10/03 07:02:35;;;;;;;49.70;25.13;;;;;;;7.34;60.52;101042.38;5049901;28;20049;-74
2021/10/03 07:05:03;;;;;;;54.17;26.98;;;;;;;7.38;60.41;101036.22;5047932;28;20053;-72
2021/10/03 07:07:29;;;;;;;46.65;25.27;;;;;;;7.45;60.42;101030.72;5041995;28;20064;-73
2021/10/03 07:09:55;;;;;;;43.63;25.80;;;;;;;7.48;60.18;101034.91;5049941;28;20053;-73
2021/10/03 07:12:21;;;;;;;44.92;24.10;;;;;;;7.60;59.88;101035.84;5031408;28;20044;-73
2021/10/03 07:14:47;;;;;;;41.75;24.17;;;;;;;7.63;59.73;101024.50;5035175;28;20136;-73
2021/10/03 07:17:13;;;;;;;50.63;23.88;;;;;;;7.74;59.46;101025.63;5045449;28;20088;-73
2021/10/03 07:19:40;;;;;;;46.78;25.70;;;;;;;7.84;59.32;101033.28;5031742;28;20609;-73
2021/10/03 07:22:08;;;;;;;45.50;24.05;;;;;;;7.92;59.17;101032.13;5049414;28;20083;-73
2021/10/03 07:24:36;;;;;;;45.50;24.75;;;;;;;8.01;58.69;101041.69;5032205;28;20081;-74
2021/10/03 07:27:03;;;;;;;41.58;23.52;;;;;;;8.07;58.45;101032.59;5031542;28;20032;-74
2021/10/03 07:29:29;;;;;;;48.90;25.38;;;;;;;8.12;58.39;101048.25;5055311;28;20075;-73
2021/10/03 07:31:55;;;;;;;48.05;25.45;;;;;;;8.11;58.39;101029.41;5057643;28;20155;-73
2021/10/03 07:34:21;;;;;;;50.45;24.45;;;;;;;8.23;58.18;101041.19;5064393;28;20053;-76
2021/10/03 07:36:47;;;;;;;45.35;23.77;;;;;;;8.30;58.00;101039.25;5064573;28;20161;-74
2021/10/03 07:39:14;;;;;;;59.90;23.83;;;;;;;8.37;57.81;101034.53;5061569;28;20422;-76
2021/10/03 07:41:40;;;;;;;54.03;24.05;;;;;;;8.44;57.52;101028.97;5051017;28;20505;-74
2021/10/03 07:44:08;;;;;;;45.58;22.60;;;;;;;8.50;57.41;101032.72;5032501;28;20116;-75
2021/10/03 07:46:34;;;;;;;52.65;23.20;;;;;;;8.59;57.31;101027.78;5031136;28;20485;-75
2021/10/03 07:49:00;;;;;;;47.83;24.40;;;;;;;8.72;56.91;101030.31;5047780;28;20414;-74
2021/10/03 07:51:26;;;;;;;48.55;24.38;;;;;;;8.73;56.85;101022.94;5047158;28;20049;-72
2021/10/03 07:53:52;;;;;;;53.20;24.42;;;;;;;8.88;56.92;101025.25;5044427;28;20553;-74
2021/10/03 07:56:22;;;;;;;50.45;26.60;;;;;;;8.98;56.70;101027.41;5048683;28;20145;-74
2021/10/03 07:58:48;;;;;;;51.40;24.80;;;;;;;9.09;56.49;101026.59;5048418;28;20080;-74
2021/10/03 08:01:18;;;;;;;45.47;25.73;;;;;;;9.08;56.35;101014.84;5044237;28;20545;-74
2021/10/03 08:03:44;;;;;;;53.08;26.80;;;;;;;9.21;56.19;101016.53;5029796;28;20424;-74
2021/10/03 08:06:10;;;;;;;53.38;26.90;;;;;;;9.36;56.16;101021.53;5048257;28;20519;-74
2021/10/03 08:08:36;;;;;;;46.80;25.70;;;;;;;9.46;55.81;101017.38;5048056;28;20080;-75
2021/10/03 08:11:03;;;;;;;54.33;26.35;;;;;;;9.56;55.50;101024.97;5012830;28;20064;-77
2021/10/03 08:13:30;;;;;;;54.15;25.42;;;;;;;9.66;55.15;101017.00;5029053;28;20060;-75
2021/10/03 08:15:58;;;;;;;49.03;26.30;;;;;;;9.78;55.19;101026.00;5029750;28;20059;-75
2021/10/03 08:18:24;;;;;;;;;;;;;;;9.90;55.09;101025.16;5047349;28;20457;-75
2021/10/03 08:20:51;;;;;;;46.80;25.08;;;;;;;10.04;54.30;101023.84;5047652;28;19928;-74
2021/10/03 08:23:24;;;;;;;53.35;24.88;;;;;;;10.19;54.19;101027.97;5046722;28;20687;-74
2021/10/03 08:25:51;;;;;;;58.17;24.05;;;;;;;10.36;53.67;101023.38;5045485;28;20384;-75
2021/10/03 08:28:17;;;;;;;54.80;24.33;;;;;;;10.52;53.35;101026.44;5043221;28;20059;-73
2021/10/03 08:30:52;;;;;;;53.80;25.35;;;;;;;10.63;53.02;101021.97;5041138;28;20118;-74
2021/10/03 08:33:20;;;;;;;44.00;25.02;;;;;;;10.73;52.88;101021.34;5059280;28;20065;-75
2021/10/03 08:35:48;;;;;;;51.13;25.05;;;;;;;10.85;52.70;101022.09;5048825;28;20087;-73
2021/10/03 08:38:16;;;;;;;58.63;25.73;;;;;;;11.04;52.64;101025.44;5043235;28;20057;-74
2021/10/03 08:40:45;;;;;;;46.72;24.25;;;;;;;11.17;52.36;101010.59;5024109;28;20058;-74
2021/10/03 08:43:14;;;;;;;44.85;22.05;;;;;;;11.39;51.45;101018.03;5043660;28;20498;-76
2021/10/03 08:45:46;;;;;;;30.67;17.17;;;;;;;11.50;50.90;101024.53;5042188;28;20048;-73
2021/10/03 08:48:17;;;;;;;31.10;15.30;;;;;;;11.55;49.80;101005.41;5031502;28;20103;-75
2021/10/03 08:50:48;;;;;;;30.10;16.20;;;;;;;11.63;49.58;101012.38;5047952;28;20053;-73
2021/10/03 08:53:17;;;;;;;37.47;16.98;;;;;;;11.79;49.02;101021.66;5046935;28;20080;-74
2021/10/03 08:55:50;;;;;;;28.63;15.40;;;;;;;11.89;48.86;101015.47;5044966;28;20103;-74
2021/10/03 08:58:23;;;;;;;28.95;15.20;;;;;;;12.00;48.34;101008.22;5026936;28;20151;-73
2021/10/03 09:00:57;;;;;;;31.15;15.50;;;;;;;12.17;47.74;101019.13;5025799;28;20045;-73
2021/10/03 09:03:31;;;;;;;32.38;16.00;;;;;;;12.22;47.56;101016.47;5044478;28;20053;-73
2021/10/03 09:06:03;;;;;;;32.08;15.95;;;;;;;12.36;47.18;101022.34;5033238;28;20057;-74
2021/10/03 09:08:38;;;;;;;31.48;15.32;;;;;;;12.43;47.11;101027.66;5034631;28;20049;-74
2021/10/03 09:11:09;;;;;;;29.48;14.38;;;;;;;12.48;46.74;101020.31;5000005;28;20434;-73
2021/10/03 09:13:48;;;;;;;28.90;13.73;;;;;;;12.65;46.40;101027.59;5054522;28;20417;-75
2021/10/03 09:16:24;;;;;;;29.10;13.10;;;;;;;12.70;46.29;101024.91;5053465;28;20096;-75
2021/10/03 09:18:55;;;;;;;24.48;13.00;;;;;;;12.81;46.12;101016.78;5029545;28;20049;-74
2021/10/03 09:21:39;;;;;;;31.02;13.88;;;;;;;12.91;45.45;101022.38;5033359;28;20057;-73
2021/10/03 09:24:12;;;;;;;27.23;13.38;;;;;;;13.03;45.24;101022.19;5051907;28;20045;-73
2021/10/03 09:26:54;;;;;;;25.75;12.65;;;;;;;13.20;45.18;101019.31;5050880;28;20068;-73
2021/10/03 09:29:27;;;;;;;28.33;11.73;;;;;;;13.38;44.79;101020.81;5047378;28;20052;-77
2021/10/03 09:32:11;;;;;;;28.73;11.93;;;;;;;13.52;44.17;101017.66;5051223;28;20544;-71
2021/10/03 09:34:43;;;;;;;20.42;11.73;;;;;;;13.56;44.18;101019.59;5051679;28;20147;-72
2021/10/03 09:37:23;;;;;;;20.65;11.52;;;;;;;13.73;43.56;101019.41;5034693;28;20112;-72
2021/10/03 09:40:02;;;;;;;24.05;12.15;;;;;;;13.88;43.32;101017.84;5048948;28;20053;-75
2021/10/03 09:42:28;;;;;;;25.23;11.05;;;;;;;14.06;43.21;101018.50;5051799;28;20060;-75
2021/10/03 09:45:10;;;;;;;24.67;12.13;;;;;;;14.18;42.60;101011.66;5051864;28;20425;-75
2021/10/03 09:47:39;;;;;;;24.48;11.80;;;;;;;14.11;42.75;100991.81;5033587;28;20049;-75
2021/10/03 09:50:07;;;;;;;21.70;11.25;;;;;;;14.25;43.02;100997.66;5034247;28;20049;-74
2021/10/03 09:52:33;;;;;;;23.30;11.85;;;;;;;14.27;42.95;101017.47;5052139;28;20079;-74
2021/10/03 09:55:03;;;;;;;21.05;10.70;;;;;;;14.28;42.73;101010.00;5030874;28;20056;-76
2021/10/03 09:57:29;;;;;;;19.17;10.23;;;;;;;14.21;42.42;101007.56;5050066;28;20052;-78
2021/10/03 09:59:57;;;;;;;22.38;10.00;;;;;;;14.11;42.75;101010.25;5037478;28;20095;-76
2021/10/03 10:02:23;;;;;;;20.75;10.75;;;;;;;14.28;42.80;101007.25;5033294;28;20509;-76
2021/10/03 10:04:51;;;;;;;21.42;9.80;;;;;;;14.30;42.42;100996.84;5063193;28;20087;-76
2021/10/03 10:07:17;;;;;;;17.27;9.93;;;;;;;14.57;41.72;101002.13;5013903;28;20063;-76
2021/10/03 10:09:44;;;;;;;20.55;10.15;;;;;;;14.84;41.65;101005.75;5026406;28;20533;-75
2021/10/03 10:12:15;;;;;;;18.35;9.43;;;;;;;14.87;41.06;101000.53;5030964;28;20053;-73
2021/10/03 10:14:44;;;;;;;19.75;9.73;;;;;;;14.92;40.80;101005.22;5032404;28;20468;-75
2021/10/03 10:17:25;;;;;;;18.05;9.77;;;;;;;14.97;40.77;101004.38;5051189;28;20472;-75
2021/10/03 10:20:43;;;;;;;;;;;;;;;;;;;;;
2021/10/03 10:23:30;;;;;;;19.35;9.45;;;;;;;14.80;40.23;100955.94;5033543;28;20052;-75
2021/10/03 10:25:59;;;;;;;19.85;9.70;;;;;;;14.87;40.07;100939.13;5040584;28;20061;-76
2021/10/03 10:28:34;;;;;;;18.92;9.88;;;;;;;15.32;39.53;100991.72;5047757;28;20064;-76
2021/10/03 10:31:13;;;;;;;23.35;10.20;;;;;;;15.43;39.63;100984.25;5044482;28;20080;-78
2021/10/03 10:34:04;;;;;;;20.15;9.32;;;;;;;15.59;38.96;100969.31;5037095;28;20084;-75
2021/10/03 10:36:37;;;;;;;19.23;8.57;;;;;;;15.50;39.29;100951.69;5057656;28;20051;-75
2021/10/03 10:39:22;;;;;;;16.10;8.98;;;;;;;15.32;38.97;100942.13;5036666;28;20530;-76
2021/10/03 10:41:54;;;;;;;17.38;8.40;;;;;;;15.47;38.91;100940.44;5050288;28;20068;-75
2021/10/03 10:44:39;;;;;;;19.55;9.45;;;;;;;15.85;38.68;100984.94;5033987;28;20061;-75
2021/10/03 10:47:17;;;;;;;18.27;8.30;;;;;;;15.74;38.30;100959.34;5011786;28;20053;-76
2021/10/03 10:49:47;;;;;;;18.52;8.35;;;;;;;16.04;38.46;100981.59;5048662;28;20156;-74
2021/10/03 10:52:43;;;;;;;20.20;8.43;;;;;;;16.24;38.20;100975.16;5022822;28;20434;-77
2021/10/03 10:55:31;;;;;;;15.48;8.93;;;;;;;16.31;37.96;100975.66;4993951;28;20062;-77
2021/10/03 10:58:14;;;;;;;16.95;8.75;;;;;;;16.36;37.71;100975.63;5031716;28;20060;-75
2021/10/03 11:00:59;;;;;;;16.13;8.30;;;;;;;16.67;37.22;100969.06;4996708;28;20049;-74
2021/10/03 11:04:02;;;;;;;15.48;7.80;;;;;;;17.04;36.64;100967.72;5049092;28;20087;-75
2021/10/03 11:06:59;;;;;;;15.40;8.82;;;;;;;17.00;36.73;100966.63;5024153;28;20089;-74
2021/10/03 11:09:26;;;;;;;;;;;;;;;17.05;36.94;100968.50;5014477;28;20053;-74
2021/10/03 11:12:12;;;;;;;15.80;8.52;;;;;;;17.10;36.62;100961.00;5065109;28;19925;-75
2021/10/03 11:14:41;;;;;;;;;;;;;;;17.39;36.21;100964.88;5052796;28;20072;-76
2021/10/03 11:17:11;;;;;;;22.98;9.30;;;;;;;17.47;36.20;100972.53;5053673;28;19924;-76
2021/10/03 11:19:48;;;;;;;22.38;9.10;;;;;;;17.33;35.88;100932.88;5036896;28;20053;-77
2021/10/03 11:22:17;;;;;;;17.70;9.57;;;;;;;17.48;35.66;100948.47;5037849;28;20103;-75
2021/10/03 11:24:49;;;;;;;19.17;9.80;;;;;;;17.70;35.02;100961.75;5030235;28;20072;-76
2021/10/03 11:27:31;;;;;;;17.95;9.90;;;;;;;17.57;35.23;100950.31;5029804;28;20057;-75